Time;durP1;ratioP1;P1;durP2;ratioP2;P2;SDS_P1;SDS_P2;PMS_P1;PMS_P2;Temp;Humidity;BMP_temperature;BMP_pressure;BME280_temperature;BME280_humidity;BME280_pressure;Samples;Min_cycle;Max_cycle;Signal;HPM_P1;HPM_P2
2023/07/25 00:01:12;;;;;;;8.27;6.87;;;;;;;;;;5094556;28;20203;-78
2023/07/25 00:03:41;;;;;;;10.57;7.20;;;;;;;;;;5076696;28;20203;-78
2023/07/25 00:06:08;;;;;;;8.03;6.33;;;;;;;;;;5094438;28;20662;-78
2023/07/25 00:08:35;;;;;;;8.63;6.87;;;;;;;;;;5094723;28;20207;-78
2023/07/25 00:11:02;;;;;;;8.03;7.23;;;;;;;;;;5094461;28;20686;-78
2023/07/25 00:13:30;;;;;;;8.13;6.50;;;;;;;;;;5059771;28;20721;-78
2023/07/25 00:15:57;;;;;;;9.10;7.70;;;;;;;;;;5076732;28;20565;-78
2023/07/25 00:18:25;;;;;;;11.67;7.40;;;;;;;;;;5093871;28;20203;-78
2023/07/25 00:20:53;;;;;;;9.50;7.50;;;;;;;;;;5076447;28;20200;-78
2023/07/25 00:23:20;;;;;;;6.83;6.00;;;;;;;;;;5094960;28;20196;-78
2023/07/25 00:25:47;;;;;;;7.80;7.07;;;;;;;;;;5075866;28;20195;-78
2023/07/25 00:28:14;;;;;;;8.40;7.40;;;;;;;;;;5076036;28;20204;-78
2023/07/25 00:30:42;;;;;;;9.03;6.93;;;;;;;;;;5075736;28;20207;-78
2023/07/25 00:33:09;;;;;;;8.33;6.60;;;;;;;;;;5076111;28;20273;-78
2023/07/25 00:35:36;;;;;;;8.80;7.30;;;;;;;;;;5059164;28;20268;-78
2023/07/25 00:38:05;;;;;;;7.93;6.80;;;;;;;;;;5094550;28;20200;-78
2023/07/25 00:40:32;;;;;;;7.50;6.70;;;;;;;;;;5094360;28;20231;-77
2023/07/25 00:43:00;;;;;;;10.20;6.60;;;;;;;;;;5075364;28;20226;-77
2023/07/25 00:45:27;;;;;;;8.70;7.40;;;;;;;;;;5093652;28;20690;-77
2023/07/25 00:47:54;;;;;;;9.03;6.97;;;;;;;;;;5059412;28;20626;-77
2023/07/25 00:50:21;;;;;;;8.20;7.00;;;;;;;;;;5093345;28;20318;-77
2023/07/25 00:52:49;;;;;;;6.97;6.30;;;;;;;;;;5076269;28;20605;-77
2023/07/25 00:55:18;;;;;;;8.17;7.00;;;;;;;;;;5093549;28;20196;-77
2023/07/25 00:57:45;;;;;;;9.27;6.97;;;;;;;;;;5075643;28;20204;-77
2023/07/25 01:00:13;;;;;;;7.50;6.57;;;;;;;;;;5093691;28;20328;-77
2023/07/25 01:02:40;;;;;;;7.63;6.83;;;;;;;;;;5075527;28;20709;-77
2023/07/25 01:05:08;;;;;;;8.47;7.07;;;;;;;;;;5042637;28;20203;-77
2023/07/25 01:07:38;;;;;;;7.00;6.07;;;;;;;;;;5058518;28;20214;-77
2023/07/25 01:10:06;;;;;;;8.37;6.43;;;;;;;;;;5092996;28;20222;-78
2023/07/25 01:12:35;;;;;;;10.83;7.23;;;;;;;;;;5058834;28;20196;-77
2023/07/25 01:15:02;;;;;;;10.50;6.83;;;;;;;;;;5093135;28;20196;-78
2023/07/25 01:17:30;;;;;;;10.53;6.80;;;;;;;;;;5075248;28;20196;-78
2023/07/25 01:19:57;;;;;;;11.23;6.93;;;;;;;;;;5074994;28;20204;-78
2023/07/25 01:22:26;;;;;;;7.10;6.40;;;;;;;;;;5093073;28;20562;-78
2023/07/25 01:24:56;;;;;;;7.93;7.10;;;;;;;;;;5075381;28;20565;-78
2023/07/25 01:27:23;;;;;;;7.03;6.37;;;;;;;;;;5093385;28;20192;-78
2023/07/25 01:29:50;;;;;;;11.80;7.60;;;;;;;;;;5092891;28;20257;-77
2023/07/25 01:32:17;;;;;;;8.03;7.03;;;;;;;;;;5093580;28;20270;-77
2023/07/25 01:34:44;;;;;;;7.30;6.60;;;;;;;;;;5075164;28;20230;-77
2023/07/25 01:37:12;;;;;;;8.60;7.23;;;;;;;;;;5074575;28;20196;-77
2023/07/25 01:39:39;;;;;;;7.97;7.17;;;;;;;;;;5074651;28;20759;-78
2023/07/25 01:42:07;;;;;;;8.43;7.53;;;;;;;;;;5074723;28;20196;-78
2023/07/25 01:44:35;;;;;;;8.67;7.27;;;;;;;;;;5074645;28;20666;-77
2023/07/25 01:47:02;;;;;;;8.03;7.23;;;;;;;;;;5074460;28;20196;-77
2023/07/25 01:49:29;;;;;;;7.93;7.20;;;;;;;;;;5074850;28;20200;-77
2023/07/25 01:51:56;;;;;;;7.60;6.63;;;;;;;;;;5092302;28;20224;-77
2023/07/25 01:54:23;;;;;;;7.60;6.87;;;;;;;;;;5074441;28;20293;-78
2023/07/25 01:56:51;;;;;;;8.17;6.63;;;;;;;;;;5074444;28;20219;-77
2023/07/25 01:59:20;;;;;;;8.70;7.80;;;;;;;;;;5074146;28;20662;-77
2023/07/25 02:01:45;;;;;;;7.57;6.40;;;;;;;;;;5074079;28;20212;-77
2023/07/25 02:04:12;;;;;;;7.93;7.13;;;;;;;;;;5092366;28;20204;-78
2023/07/25 02:06:42;;;;;;;11.97;7.57;;;;;;;;;;5092763;28;20235;-78
2023/07/25 02:09:09;;;;;;;8.57;6.77;;;;;;;;;;5075487;28;20200;-78
2023/07/25 02:11:36;;;;;;;9.17;7.47;;;;;;;;;;5057475;28;20210;-78
2023/07/25 02:14:03;;;;;;;8.00;7.20;;;;;;;;;;5092128;28;20223;-78
2023/07/25 02:16:36;;;;;;;43.93;9.70;;;;;;;;;;5073783;28;20207;-78
2023/07/25 02:19:03;;;;;;;18.93;8.60;;;;;;;;;;5092035;28;20208;-78
2023/07/25 02:21:30;;;;;;;9.57;7.60;;;;;;;;;;5092363;28;20192;-78
2023/07/25 02:23:57;;;;;;;10.93;7.87;;;;;;;;;;5074388;28;20561;-78
2023/07/25 02:26:24;;;;;;;9.23;7.40;;;;;;;;;;5073797;28;20196;-78
2023/07/25 02:28:51;;;;;;;11.47;7.43;;;;;;;;;;5091583;28;20200;-78
2023/07/25 02:31:18;;;;;;;8.93;7.57;;;;;;;;;;5074180;28;20203;-78
2023/07/25 02:33:47;;;;;;;12.00;8.03;;;;;;;;;;5092040;28;20324;-78
2023/07/25 02:36:14;;;;;;;10.50;7.60;;;;;;;;;;5091840;28;20678;-77
2023/07/25 02:38:41;;;;;;;14.90;7.70;;;;;;;;;;5073914;28;20196;-77
2023/07/25 02:41:08;;;;;;;10.87;7.20;;;;;;;;;;5057267;28;20680;-77
2023/07/25 02:43:35;;;;;;;9.70;8.10;;;;;;;;;;5072198;28;20202;-77
2023/07/25 02:46:02;;;;;;;8.47;7.50;;;;;;;;;;5074230;28;20196;-77
2023/07/25 02:48:29;;;;;;;11.67;7.50;;;;;;;;;;5091769;28;20235;-77
2023/07/25 02:50:58;;;;;;;9.23;7.67;;;;;;;;;;5091685;28;20228;-77
2023/07/25 02:53:25;;;;;;;9.47;7.67;;;;;;;;;;5073791;28;20226;-77
2023/07/25 02:55:53;;;;;;;9.00;8.13;;;;;;;;;;5073910;28;20223;-77
2023/07/25 02:58:21;;;;;;;10.03;8.17;;;;;;;;;;5091605;28;20204;-77
2023/07/25 03:00:48;;;;;;;9.63;8.40;;;;;;;;;;5074124;28;20576;-77
2023/07/25 03:03:15;;;;;;;8.70;7.80;;;;;;;;;;5073776;28;20291;-77
2023/07/25 03:05:42;;;;;;;12.27;8.70;;;;;;;;;;5073557;28;20593;-77
2023/07/25 03:08:11;;;;;;;11.63;8.00;;;;;;;;;;5091318;28;20203;-76
2023/07/25 03:10:38;;;;;;;9.80;8.80;;;;;;;;;;5096027;28;20283;-76
2023/07/25 03:13:05;;;;;;;7.77;6.80;;;;;;;;;;5061129;28;20192;-76
2023/07/25 03:15:32;;;;;;;10.37;8.30;;;;;;;;;;5096039;28;20196;-76
2023/07/25 03:17:59;;;;;;;8.93;7.73;;;;;;;;;;5060961;28;20204;-76
2023/07/25 03:20:26;;;;;;;10.17;7.40;;;;;;;;;;5077513;28;20208;-76
2023/07/25 03:22:53;;;;;;;8.93;7.50;;;;;;;;;;5060946;28;20269;-77
2023/07/25 03:25:22;;;;;;;9.07;7.03;;;;;;;;;;5077291;28;20709;-77
2023/07/25 03:27:49;;;;;;;10.27;7.70;;;;;;;;;;5095357;28;20207;-79
2023/07/25 03:30:16;;;;;;;14.00;8.73;;;;;;;;;;5095236;28;20206;-78
2023/07/25 03:32:43;;;;;;;12.13;7.80;;;;;;;;;;5077988;28;20254;-78
2023/07/25 03:35:10;;;;;;;13.33;9.10;;;;;;;;;;5094943;28;20238;-79
2023/07/25 03:37:37;;;;;;;9.17;8.20;;;;;;;;;;5077062;28;20206;-78
2023/07/25 03:40:06;;;;;;;28.93;10.20;;;;;;;;;;5094994;28;20574;-78
2023/07/25 03:42:35;;;;;;;26.53;10.23;;;;;;;;;;5060582;28;20200;-78
2023/07/25 03:45:02;;;;;;;11.87;9.70;;;;;;;;;;5076916;28;20218;-78
2023/07/25 03:47:30;;;;;;;13.10;11.80;;;;;;;;;;5077102;28;20192;-78
2023/07/25 03:49:57;;;;;;;11.60;10.50;;;;;;;;;;5061324;28;20544;-78
2023/07/25 03:52:24;;;;;;;10.17;9.23;;;;;;;;;;5076696;28;20599;-78
2023/07/25 03:54:51;;;;;;;30.60;17.13;;;;;;;;;;5094444;28;20702;-78
2023/07/25 03:57:18;;;;;;;28.23;16.43;;;;;;;;;;5095240;28;20671;-78
2023/07/25 03:59:46;;;;;;;12.73;10.20;;;;;;;;;;5076224;28;20204;-78
2023/07/25 04:02:13;;;;;;;10.47;9.30;;;;;;;;;;5060852;28;20196;-78
2023/07/25 04:04:40;;;;;;;10.90;8.90;;;;;;;;;;5094572;28;20196;-78
2023/07/25 04:07:07;;;;;;;12.40;9.00;;;;;;;;;;5094995;28;20196;-78
2023/07/25 04:09:34;;;;;;;17.60;10.23;;;;;;;;;;5112764;28;20286;-77
2023/07/25 04:12:00;;;;;;;11.40;9.53;;;;;;;;;;5114792;28;20203;-79
2023/07/25 04:14:27;;;;;;;13.27;9.30;;;;;;;;;;5114683;28;20305;-78
2023/07/25 04:16:55;;;;;;;17.50;10.93;;;;;;;;;;5114698;28;20202;-77
2023/07/25 04:19:22;;;;;;;31.80;10.67;;;;;;;;;;5114760;28;20206;-78
2023/07/25 04:21:49;;;;;;;19.23;10.93;;;;;;;;;;5114921;28;20226;-78
2023/07/25 04:24:16;;;;;;;34.10;13.33;;;;;;;;;;5114658;28;20669;-77
2023/07/25 04:26:43;;;;;;;16.10;9.80;;;;;;;;;;5115124;28;20201;-78
2023/07/25 04:29:09;;;;;;;15.87;10.60;;;;;;;;;;5112548;28;20206;-78
2023/07/25 04:31:36;;;;;;;13.80;9.73;;;;;;;;;;5094004;28;20274;-77
2023/07/25 04:34:04;;;;;;;11.67;10.47;;;;;;;;;;5094341;28;20231;-77
2023/07/25 04:36:31;;;;;;;11.67;9.53;;;;;;;;;;5094598;28;20200;-77
2023/07/25 04:38:58;;;;;;;13.30;9.27;;;;;;;;;;5093972;28;20207;-77
2023/07/25 04:41:25;;;;;;;11.93;9.77;;;;;;;;;;5093605;28;20201;-77
2023/07/25 04:43:51;;;;;;;14.20;9.10;;;;;;;;;;5097308;28;20210;-77
2023/07/25 04:46:18;;;;;;;12.83;8.53;;;;;;;;;;5114430;28;20196;-77
2023/07/25 04:48:45;;;;;;;13.67;8.90;;;;;;;;;;5114391;28;20566;-78
2023/07/25 04:51:14;;;;;;;11.90;9.00;;;;;;;;;;5114371;28;20234;-77
2023/07/25 04:53:41;;;;;;;9.77;8.87;;;;;;;;;;5112229;28;20202;-77
2023/07/25 04:56:08;;;;;;;14.03;9.10;;;;;;;;;;5099317;28;20183;-78
2023/07/25 04:58:34;;;;;;;11.97;9.40;;;;;;;;;;5112624;28;20202;-78
2023/07/25 05:01:01;;;;;;;10.77;9.27;;;;;;;;;;5113067;28;20195;-77
2023/07/25 05:03:28;;;;;;;10.93;9.03;;;;;;;;;;5101012;28;20682;-77
2023/07/25 05:05:56;;;;;;;11.10;10.00;;;;;;;;;;5105978;28;20301;-77
2023/07/25 05:08:24;;;;;;;15.60;10.23;;;;;;;;;;5103287;28;20231;-78
2023/07/25 05:10:52;;;;;;;11.20;9.80;;;;;;;;;;5093968;28;20197;-77
2023/07/25 05:13:18;;;;;;;13.23;10.13;;;;;;;;;;5104889;28;20201;-78
2023/07/25 05:15:45;;;;;;;14.60;10.43;;;;;;;;;;5106936;28;20227;-78
2023/07/25 05:18:12;;;;;;;18.33;10.03;;;;;;;;;;5091956;28;20204;-78
2023/07/25 05:20:39;;;;;;;28.13;10.97;;;;;;;;;;5098708;28;20195;-77
2023/07/25 05:23:06;;;;;;;21.97;10.93;;;;;;;;;;5102524;28;20203;-78
2023/07/25 05:25:34;;;;;;;25.13;11.10;;;;;;;;;;5106415;28;20203;-78
2023/07/25 05:28:01;;;;;;;24.57;11.30;;;;;;;;;;5103743;28;20199;-78
2023/07/25 05:30:27;;;;;;;22.87;10.13;;;;;;;;;;5112345;28;20256;-77
2023/07/25 05:32:54;;;;;;;23.70;11.73;;;;;;;;;;5111887;28;20252;-77
2023/07/25 05:35:21;;;;;;;19.63;11.13;;;;;;;;;;5092717;28;20216;-80
2023/07/25 05:37:48;;;;;;;26.63;10.80;;;;;;;;;;5105443;28;20203;-78
2023/07/25 05:40:14;;;;;;;17.93;10.17;;;;;;;;;;5099047;28;20203;-78
2023/07/25 05:42:43;;;;;;;14.43;10.13;;;;;;;;;;5112112;28;20210;-78
2023/07/25 05:45:10;;;;;;;12.37;8.87;;;;;;;;;;5104187;28;20208;-78
2023/07/25 05:47:37;;;;;;;12.83;8.13;;;;;;;;;;5091632;28;20203;-77
2023/07/25 05:50:04;;;;;;;11.70;8.33;;;;;;;;;;5103182;28;20200;-77
2023/07/25 05:52:31;;;;;;;10.97;8.37;;;;;;;;;;5107180;28;20260;-77
2023/07/25 05:54:58;;;;;;;10.07;7.97;;;;;;;;;;5111940;28;20215;-77
2023/07/25 05:57:25;;;;;;;8.83;7.80;;;;;;;;;;5097573;28;20204;-77
2023/07/25 05:59:53;;;;;;;8.60;7.63;;;;;;;;;;5109954;28;20256;-77
2023/07/25 06:02:20;;;;;;;10.50;7.37;;;;;;;;;;5097626;28;20261;-77
2023/07/25 06:04:47;;;;;;;15.07;7.07;;;;;;;;;;5102673;28;20215;-78
2023/07/25 06:07:14;;;;;;;7.43;6.73;;;;;;;;;;5092562;28;20674;-77
2023/07/25 06:09:40;;;;;;;6.67;5.80;;;;;;;;;;5111773;28;20737;-77
2023/07/25 06:12:08;;;;;;;9.27;6.30;;;;;;;;;;5097612;28;20204;-78
2023/07/25 06:14:35;;;;;;;6.37;5.33;;;;;;;;;;5103858;28;20212;-77
2023/07/25 06:17:04;;;;;;;8.57;6.20;;;;;;;;;;5104991;28;20199;-77
2023/07/25 06:19:31;;;;;;;10.27;6.73;;;;;;;;;;5094107;28;20192;-77
2023/07/25 06:21:57;;;;;;;9.47;6.30;;;;;;;;;;5093628;28;20204;-77
2023/07/25 06:24:25;;;;;;;7.77;6.50;;;;;;;;;;5101166;28;20200;-77
2023/07/25 06:26:52;;;;;;;10.60;6.10;;;;;;;;;;5105158;28;20200;-77
2023/07/25 06:29:19;;;;;;;7.40;6.70;;;;;;;;;;5101423;28;20617;-77
2023/07/25 06:31:45;;;;;;;7.47;6.77;;;;;;;;;;5111650;28;20198;-77
2023/07/25 06:34:14;;;;;;;8.20;6.57;;;;;;;;;;5100714;28;20200;-77
2023/07/25 06:36:40;;;;;;;6.97;6.20;;;;;;;;;;5108663;28;20627;-77
2023/07/25 06:39:07;;;;;;;7.50;6.07;;;;;;;;;;5101723;28;20227;-81
2023/07/25 06:41:34;;;;;;;8.23;6.38;;;;;;;;;;5095144;28;20279;-78
2023/07/25 06:44:01;;;;;;;10.70;6.68;;;;;;;;;;5099978;28;20203;-77
2023/07/25 06:46:28;;;;;;;7.10;6.30;;;;;;;;;;5090963;28;20196;-77
2023/07/25 06:48:55;;;;;;;6.82;6.05;;;;;;;;;;5091231;28;20204;-78
2023/07/25 06:51:23;;;;;;;8.45;6.82;;;;;;;;;;5109289;28;20224;-77
2023/07/25 06:53:50;;;;;;;6.80;6.07;;;;;;;;;;5100471;28;20542;-77
2023/07/25 06:56:16;;;;;;;9.00;7.32;;;;;;;;;;5104843;28;20223;-77
2023/07/25 06:58:43;;;;;;;6.78;6.07;;;;;;;;;;5103865;28;20670;-77
2023/07/25 07:01:10;;;;;;;12.25;7.60;;;;;;;;;;5092993;28;20199;-78
2023/07/25 07:03:37;;;;;;;8.27;6.50;;;;;;;;;;5111549;28;20191;-77
2023/07/25 07:06:04;;;;;;;10.88;6.85;;;;;;;;;;5097309;28;20207;-78
2023/07/25 07:08:32;;;;;;;7.07;6.38;;;;;;;;;;5099519;28;20197;-77
2023/07/25 07:10:59;;;;;;;7.57;6.72;;;;;;;;;;5097190;28;20195;-78
2023/07/25 07:13:25;;;;;;;7.43;6.72;;;;;;;;;;5110945;28;20210;-77
2023/07/25 07:15:52;;;;;;;7.90;7.20;;;;;;;;;;5091404;28;20220;-77
2023/07/25 07:18:19;;;;;;;12.65;7.88;;;;;;;;;;5091127;28;20292;-77
2023/07/25 07:20:49;;;;;;;8.50;7.55;;;;;;;;;;5103617;28;20192;-78
2023/07/25 07:23:16;;;;;;;8.80;7.88;;;;;;;;;;5104497;28;20192;-78
2023/07/25 07:25:45;;;;;;;11.23;7.38;;;;;;;;;;5098322;28;20198;-78
2023/07/25 07:28:12;;;;;;;8.73;7.93;;;;;;;;;;5110048;28;20577;-78
2023/07/25 07:30:39;;;;;;;9.65;7.60;;;;;;;;;;5098831;28;20191;-77
2023/07/25 07:33:06;;;;;;;9.35;7.30;;;;;;;;;;5096439;28;20724;-78
2023/07/25 07:35:32;;;;;;;9.32;8.43;;;;;;;;;;5102388;28;20212;-77
2023/07/25 07:37:59;;;;;;;8.32;7.18;;;;;;;;;;5106000;28;20199;-79
2023/07/25 07:40:26;;;;;;;12.75;7.95;;;;;;;;;;5099881;28;20286;-77
2023/07/25 07:42:54;;;;;;;10.35;8.02;;;;;;;;;;5097180;28;20192;-78
2023/07/25 07:45:23;;;;;;;8.50;7.22;;;;;;;;;;5101235;28;20196;-78
2023/07/25 07:47:50;;;;;;;9.73;6.95;;;;;;;;;;5089929;28;20283;-78
2023/07/25 07:50:18;;;;;;;7.97;7.07;;;;;;;;;;5090079;28;20257;-77
2023/07/25 07:52:45;;;;;;;7.63;6.80;;;;;;;;;;5107002;28;20676;-78
2023/07/25 07:55:12;;;;;;;9.55;7.20;;;;;;;;;;5111705;28;20766;-78
2023/07/25 07:57:40;;;;;;;13.27;6.85;;;;;;;;;;5114036;28;20653;-77
2023/07/25 08:00:10;;;;;;;8.68;6.30;;;;;;;;;;5103610;28;20204;-77
2023/07/25 08:02:37;;;;;;;8.07;7.38;;;;;;;;;;5107421;28;20204;-78
2023/07/25 08:05:04;;;;;;;8.05;7.15;;;;;;;;;;5101892;28;20206;-78
2023/07/25 08:07:30;;;;;;;10.60;7.72;;;;;;;;;;5099556;28;20227;-78
2023/07/25 08:09:57;;;;;;;8.65;7.65;;;;;;;;;;5102471;28;20200;-78
2023/07/25 08:12:26;;;;;;;8.77;7.88;;;;;;;;;;5108320;28;20616;-78
2023/07/25 08:14:53;;;;;;;11.88;8.77;;;;;;;;;;5102468;28;20253;-78
2023/07/25 08:17:21;;;;;;;10.55;9.23;;;;;;;;;;5100602;28;20227;-76
2023/07/25 08:19:48;;;;;;;11.60;8.95;;;;;;;;;;5100225;28;20425;-78
2023/07/25 08:22:15;;;;;;;7.93;7.15;;;;;;;;;;5113387;28;20196;-78
2023/07/25 08:24:42;;;;;;;10.60;7.55;;;;;;;;;;5100518;28;20282;-79
2023/07/25 08:27:09;;;;;;;8.73;6.93;;;;;;;;;;5107392;28;20199;-78
2023/07/25 08:29:39;;;;;;;8.82;7.32;;;;;;;;;;5107164;28;20202;-78
2023/07/25 08:32:08;;;;;;;8.55;7.47;;;;;;;;;;5093290;28;20198;-78
2023/07/25 08:34:36;;;;;;;11.30;8.38;;;;;;;;;;5106671;28;20206;-77
2023/07/25 08:37:04;;;;;;;9.48;7.75;;;;;;;;;;5113686;28;20306;-78
2023/07/25 08:39:31;;;;;;;9.00;8.10;;;;;;;;;;5098645;28;20215;-78
2023/07/25 08:41:58;;;;;;;8.82;7.93;;;;;;;;;;5101690;28;20198;-78
2023/07/25 08:44:27;;;;;;;8.07;7.35;;;;;;;;;;5099779;28;20253;-77
2023/07/25 08:46:55;;;;;;;10.25;7.63;;;;;;;;;;5113634;28;20197;-77
2023/07/25 08:49:25;;;;;;;10.70;7.65;;;;;;;;;;5113145;28;20661;-77
2023/07/25 08:51:54;;;;;;;8.18;7.38;;;;;;;;;;5113317;28;20226;-77
2023/07/25 08:54:27;;;;;;;11.85;8.88;;;;;;;;;;5110238;28;20595;-77
2023/07/25 08:56:54;;;;;;;9.40;8.43;;;;;;;;;;5103591;28;20230;-78
2023/07/25 08:59:21;;;;;;;10.93;7.75;;;;;;;;;;5108187;28;20677;-78
2023/07/25 09:01:48;;;;;;;8.65;7.85;;;;;;;;;;5092689;28;20196;-78
2023/07/25 09:04:16;;;;;;;11.13;7.13;;;;;;;;;;5092606;28;20185;-78
2023/07/25 09:06:42;;;;;;;8.35;7.18;;;;;;;;;;5103976;28;20304;-79
2023/07/25 09:09:11;;;;;;;8.35;7.55;;;;;;;;;;5098902;28;20650;-78
2023/07/25 09:11:38;;;;;;;10.85;7.18;;;;;;;;;;5100378;28;20283;-77
2023/07/25 09:14:05;;;;;;;9.20;7.40;;;;;;;;;;5107134;28;20633;-78
2023/07/25 09:16:32;;;;;;;11.45;8.15;;;;;;;;;;5092312;28;20246;-77
2023/07/25 09:18:59;;;;;;;9.60;7.10;;;;;;;;;;5111514;28;20661;-77
2023/07/25 09:21:26;;;;;;;9.32;8.20;;;;;;;;;;5112969;28;20195;-78
2023/07/25 09:23:53;;;;;;;9.80;7.75;;;;;;;;;;5106379;28;20196;-77
2023/07/25 09:26:23;;;;;;;12.05;7.85;;;;;;;;;;5092253;28;20216;-78
2023/07/25 09:28:51;;;;;;;7.75;6.97;;;;;;;;;;5092596;28;20207;-78
2023/07/25 09:31:19;;;;;;;9.93;7.43;;;;;;;;;;5104335;28;20192;-78
2023/07/25 09:33:48;;;;;;;7.72;6.93;;;;;;;;;;5099929;28;20674;-78
2023/07/25 09:36:15;;;;;;;14.73;8.07;;;;;;;;;;5099977;28;20220;-78
2023/07/25 09:38:48;;;;;;;8.38;7.57;;;;;;;;;;5104554;28;20197;-77
2023/07/25 09:41:15;;;;;;;11.77;7.97;;;;;;;;;;5108242;28;20726;-78
2023/07/25 09:43:43;;;;;;;8.23;7.45;;;;;;;;;;5112276;28;20202;-77
2023/07/25 09:46:11;;;;;;;10.70;7.68;;;;;;;;;;5110043;28;20202;-77
2023/07/25 09:48:37;;;;;;;9.32;7.65;;;;;;;;;;5092018;28;20196;-77
2023/07/25 09:51:05;;;;;;;10.10;8.50;;;;;;;;;;5105606;28;20228;-77
2023/07/25 09:53:32;;;;;;;9.57;8.48;;;;;;;;;;5100560;28;20192;-78
2023/07/25 09:55:59;;;;;;;13.30;7.07;;;;;;;;;;5111858;28;20804;-77
2023/07/25 09:58:26;;;;;;;8.95;8.05;;;;;;;;;;5111902;28;20195;-77
2023/07/25 10:00:54;;;;;;;10.85;8.13;;;;;;;;;;5111990;28;20545;-78
2023/07/25 10:03:22;;;;;;;9.90;8.93;;;;;;;;;;5101112;28;20629;-78
2023/07/25 10:05:49;;;;;;;9.65;7.80;;;;;;;;;;5094431;28;20194;-77
2023/07/25 10:08:17;;;;;;;9.13;8.23;;;;;;;;;;5112050;28;20269;-78
2023/07/25 10:10:44;;;;;;;12.95;8.55;;;;;;;;;;5110215;28;20585;-77
2023/07/25 10:13:11;;;;;;;11.50;8.25;;;;;;;;;;5100128;28;20685;-78
2023/07/25 10:15:38;;;;;;;12.10;9.50;;;;;;;;;;5105060;28;20223;-77
2023/07/25 10:18:19;;;;;;;11.07;8.70;;;;;;;;;;5090938;28;20203;-78
2023/07/25 10:20:46;;;;;;;9.43;8.25;;;;;;;;;;5097796;28;20196;-77
2023/07/25 10:23:14;;;;;;;9.57;8.35;;;;;;;;;;5111272;28;20199;-78
2023/07/25 10:25:41;;;;;;;11.57;8.32;;;;;;;;;;5111456;28;20191;-78
2023/07/25 10:28:08;;;;;;;8.95;8.05;;;;;;;;;;5097198;28;20197;-78
2023/07/25 10:30:41;;;;;;;10.30;7.97;;;;;;;;;;5111635;28;20195;-78
2023/07/25 10:33:14;;;;;;;9.90;8.25;;;;;;;;;;5095706;28;20192;-78
2023/07/25 10:35:42;;;;;;;10.48;9.55;;;;;;;;;;5091181;28;20212;-77
2023/07/25 10:38:10;;;;;;;10.18;7.95;;;;;;;;;;5107932;28;20191;-77
2023/07/25 10:40:57;;;;;;;8.32;7.60;;;;;;;;;;5111367;28;20219;-78
2023/07/25 10:43:28;;;;;;;9.07;8.27;;;;;;;;;;5111052;28;20202;-78
2023/07/25 10:45:55;;;;;;;12.65;8.95;;;;;;;;;;5110922;28;20665;-77
2023/07/25 10:48:45;;;;;;;8.98;8.05;;;;;;;;;;5097960;28;20192;-77
2023/07/25 10:51:13;;;;;;;9.60;8.25;;;;;;;;;;5107631;28;20216;-78
2023/07/25 10:53:40;;;;;;;9.27;8.05;;;;;;;;;;5098824;28;20711;-77
2023/07/25 10:56:16;;;;;;;9.75;8.68;;;;;;;;;;5095776;28;20216;-78
2023/07/25 10:59:03;;;;;;;11.73;8.43;;;;;;;;;;5098694;28;20199;-77
2023/07/25 11:01:43;;;;;;;11.63;9.20;;;;;;;;;;5097709;28;20195;-78
2023/07/25 11:04:32;;;;;;;11.85;9.02;;;;;;;;;;5111051;28;20571;-77
2023/07/25 11:07:09;;;;;;;13.20;8.02;;;;;;;;;;5110935;28;20196;-77
2023/07/25 11:09:41;;;;;;;9.60;8.38;;;;;;;;;;5111024;28;20248;-78
2023/07/25 11:12:08;;;;;;;9.32;8.40;;;;;;;;;;5111318;28;20328;-78
2023/07/25 11:14:40;;;;;;;11.45;8.73;;;;;;;;;;5111455;28;20615;-77
2023/07/25 11:17:07;;;;;;;9.57;8.02;;;;;;;;;;5097068;28;20219;-77
2023/07/25 11:19:36;;;;;;;10.07;8.18;;;;;;;;;;5100919;28;20200;-77
2023/07/25 11:22:08;;;;;;;15.85;9.57;;;;;;;;;;5104909;28;20200;-77
2023/07/25 11:24:41;;;;;;;14.85;8.98;;;;;;;;;;5102159;28;20253;-78
2023/07/25 11:27:07;;;;;;;11.95;8.65;;;;;;;;;;5107745;28;20188;-78
2023/07/25 11:29:36;;;;;;;10.55;8.68;;;;;;;;;;5103329;28;20210;-77
2023/07/25 11:32:03;;;;;;;8.73;7.90;;;;;;;;;;5101244;28;20203;-78
2023/07/25 11:34:30;;;;;;;10.98;9.00;;;;;;;;;;5114495;28;20684;-78
2023/07/25 11:36:58;;;;;;;8.43;7.38;;;;;;;;;;5101035;28;20223;-78
2023/07/25 11:39:25;;;;;;;8.15;7.22;;;;;;;;;;5102452;28;20734;-78
2023/07/25 11:41:52;;;;;;;10.88;8.27;;;;;;;;;;5111781;28;20576;-78
2023/07/25 11:44:20;;;;;;;8.93;7.32;;;;;;;;;;5114583;28;20272;-78
2023/07/25 11:46:50;;;;;;;13.07;8.35;;;;;;;;;;5107383;28;20211;-77
2023/07/25 11:49:17;;;;;;;16.15;8.50;;;;;;;;;;5107543;28;20207;-77
2023/07/25 11:51:45;;;;;;;14.02;8.70;;;;;;;;;;5102229;28;20599;-78
2023/07/25 11:54:13;;;;;;;10.38;8.60;;;;;;;;;;5099873;28;20196;-77
2023/07/25 11:56:40;;;;;;;11.57;8.13;;;;;;;;;;5106113;28;20224;-78
2023/07/25 11:59:11;;;;;;;10.07;8.55;;;;;;;;;;5107090;28;20208;-78
2023/07/25 12:01:38;;;;;;;12.13;8.27;;;;;;;;;;5094005;28;20204;-78
2023/07/25 12:04:13;;;;;;;11.63;8.38;;;;;;;;;;5097290;28;20202;-78
2023/07/25 12:06:40;;;;;;;14.02;8.93;;;;;;;;;;5104128;28;20692;-77
2023/07/25 12:09:07;;;;;;;12.07;8.20;;;;;;;;;;5112569;28;20195;-78
2023/07/25 12:11:41;;;;;;;9.93;8.13;;;;;;;;;;5102405;28;20283;-78
2023/07/25 12:14:10;;;;;;;10.48;8.45;;;;;;;;;;5107227;28;20228;-78
2023/07/25 12:16:38;;;;;;;13.05;9.25;;;;;;;;;;5107001;28;20219;-78
2023/07/25 12:19:06;;;;;;;10.65;8.98;;;;;;;;;;5106756;28;20196;-77
2023/07/25 12:21:34;;;;;;;10.55;9.00;;;;;;;;;;5093318;28;20196;-78
2023/07/25 12:24:02;;;;;;;11.60;10.35;;;;;;;;;;5093791;28;20196;-77
2023/07/25 12:26:29;;;;;;;11.32;9.70;;;;;;;;;;5093506;28;20207;-77
2023/07/25 12:28:59;;;;;;;11.20;9.07;;;;;;;;;;5100672;28;20192;-78
2023/07/25 12:31:26;;;;;;;13.23;9.35;;;;;;;;;;5098426;28;20192;-77
2023/07/25 12:33:52;;;;;;;11.55;8.43;;;;;;;;;;5093454;28;20196;-80
2023/07/25 12:36:19;;;;;;;13.60;8.85;;;;;;;;;;5096163;28;20227;-77
2023/07/25 12:38:45;;;;;;;11.20;8.98;;;;;;;;;;5113510;28;20669;-77
2023/07/25 12:41:13;;;;;;;16.48;8.65;;;;;;;;;;5097205;28;20200;-78
2023/07/25 12:43:40;;;;;;;12.98;8.70;;;;;;;;;;5103298;28;20199;-78
2023/07/25 12:46:09;;;;;;;11.27;8.68;;;;;;;;;;5097435;28;20780;-77
2023/07/25 12:48:35;;;;;;;11.20;9.85;;;;;;;;;;5101838;28;20195;-78
2023/07/25 12:51:02;;;;;;;13.25;9.50;;;;;;;;;;5112504;28;20715;-78
2023/07/25 12:53:29;;;;;;;13.68;9.02;;;;;;;;;;5101491;28;20199;-79
2023/07/25 12:55:56;;;;;;;14.07;9.27;;;;;;;;;;5111167;28;20206;-77
2023/07/25 12:58:23;;;;;;;16.00;10.00;;;;;;;;;;5102079;28;20248;-78
2023/07/25 13:00:51;;;;;;;11.80;8.90;;;;;;;;;;5096914;28;20228;-77
2023/07/25 13:03:24;;;;;;;18.58;8.75;;;;;;;;;;5102721;28;20198;-77
2023/07/25 13:05:54;;;;;;;15.80;9.18;;;;;;;;;;5112859;28;20210;-77
2023/07/25 13:08:21;;;;;;;15.57;8.80;;;;;;;;;;5113367;28;20233;-77
2023/07/25 13:10:48;;;;;;;11.23;7.70;;;;;;;;;;5099390;28;20195;-78
2023/07/25 13:13:15;;;;;;;10.43;8.45;;;;;;;;;;5112556;28;20653;-78
2023/07/25 13:15:42;;;;;;;11.55;9.07;;;;;;;;;;5108438;28;20188;-78
2023/07/25 13:18:09;;;;;;;11.38;9.00;;;;;;;;;;5102834;28;20691;-78
2023/07/25 13:20:37;;;;;;;11.68;9.95;;;;;;;;;;5094525;28;20192;-78
2023/07/25 13:23:04;;;;;;;16.15;9.07;;;;;;;;;;5092653;28;20196;-77
2023/07/25 13:25:31;;;;;;;11.48;9.43;;;;;;;;;;5106947;28;20200;-78
2023/07/25 13:27:57;;;;;;;13.20;9.30;;;;;;;;;;5105076;28;20195;-79
2023/07/25 13:30:24;;;;;;;10.85;8.20;;;;;;;;;;5097495;28;20194;-78
2023/07/25 13:32:54;;;;;;;10.80;8.45;;;;;;;;;;5112505;28;20696;-78
2023/07/25 13:35:20;;;;;;;12.13;9.13;;;;;;;;;;5099013;28;20196;-78
2023/07/25 13:37:49;;;;;;;12.13;8.55;;;;;;;;;;5098716;28;20231;-77
2023/07/25 13:40:18;;;;;;;10.82;8.65;;;;;;;;;;5091993;28;20605;-77
2023/07/25 13:42:45;;;;;;;10.15;7.93;;;;;;;;;;5106107;28;20199;-77
2023/07/25 13:45:12;;;;;;;10.90;7.80;;;;;;;;;;5101193;28;20210;-78
2023/07/25 13:47:38;;;;;;;10.43;8.13;;;;;;;;;;5097727;28;20204;-78
2023/07/25 13:50:06;;;;;;;11.25;7.38;;;;;;;;;;5092226;28;20200;-78
2023/07/25 13:52:32;;;;;;;8.50;7.28;;;;;;;;;;5091913;28;20208;-78
2023/07/25 13:55:01;;;;;;;10.18;7.63;;;;;;;;;;5112401;28;20206;-77
2023/07/25 13:57:27;;;;;;;8.25;6.88;;;;;;;;;;5109727;28;20218;-78
2023/07/25 13:59:54;;;;;;;12.77;7.93;;;;;;;;;;5101553;28;20248;-77
2023/07/25 14:02:21;;;;;;;11.80;7.90;;;;;;;;;;5111533;28;20195;-78
2023/07/25 14:04:48;;;;;;;8.77;6.45;;;;;;;;;;5111578;28;20196;-77
2023/07/25 14:07:15;;;;;;;10.70;6.65;;;;;;;;;;5095919;28;20196;-78
2023/07/25 14:09:42;;;;;;;9.23;7.10;;;;;;;;;;5100014;28;20196;-77
2023/07/25 14:12:11;;;;;;;9.57;7.38;;;;;;;;;;5111559;28;20195;-78
2023/07/25 14:14:37;;;;;;;14.48;8.70;;;;;;;;;;5111878;28;20202;-78
2023/07/25 14:17:06;;;;;;;10.45;7.95;;;;;;;;;;5096605;28;20223;-78
2023/07/25 14:19:33;;;;;;;13.35;9.63;;;;;;;;;;5103265;28;20199;-77
2023/07/25 14:22:00;;;;;;;15.52;7.55;;;;;;;;;;5107737;28;20208;-77
2023/07/25 14:24:27;;;;;;;13.05;8.50;;;;;;;;;;5111404;28;20191;-78
2023/07/25 14:26:54;;;;;;;12.10;8.50;;;;;;;;;;5100498;28;20210;-77
2023/07/25 14:29:22;;;;;;;14.43;7.85;;;;;;;;;;5111513;28;20202;-78
2023/07/25 14:31:48;;;;;;;11.60;7.13;;;;;;;;;;5106399;28;20667;-77
2023/07/25 14:34:15;;;;;;;11.82;7.90;;;;;;;;;;5101715;28;20202;-78
2023/07/25 14:36:42;;;;;;;11.70;6.80;;;;;;;;;;5096132;28;20192;-77